createdAt,value
2023-01-13T00:03:24.216Z,52.08
2023-01-13T00:08:29.261Z,40.78
2023-01-13T00:13:35.285Z,25.62
2023-01-13T00:30:49.876Z,32.03
2023-01-13T00:35:57.705Z,36.83
2023-01-13T00:41:03.096Z,42.25
2023-01-13T00:46:10.386Z,35.45
2023-01-13T00:51:15.913Z,35.20
2023-01-13T00:56:38.451Z,39.42
2023-01-13T01:01:44.782Z,33.28
2023-01-13T01:06:48.631Z,41.92
2023-01-13T01:11:52.376Z,42.28
2023-01-13T01:16:57.438Z,37.38
2023-01-13T01:22:01.184Z,31.17
2023-01-13T01:27:05.023Z,37.72
2023-01-13T01:32:10.125Z,36.08
2023-01-13T01:37:14.225Z,42.25
2023-01-13T01:42:35.614Z,33.33
2023-01-13T01:47:42.014Z,29.10
2023-01-13T01:52:51.148Z,34.20
2023-01-13T01:57:59.709Z,36.40
2023-01-13T02:03:08.453Z,45.83
2023-01-13T02:08:15.087Z,41.47
2023-01-13T02:13:18.831Z,47.83
2023-01-13T02:18:39.176Z,51.92
2023-01-13T02:24:27.995Z,50.78
2023-01-13T02:30:09.605Z,49.75
2023-01-13T02:35:19.716Z,40.85
2023-01-13T02:40:27.378Z,40.65
2023-01-13T02:45:36.819Z,44.38
2023-01-13T02:50:45.536Z,37.75
2023-01-13T02:55:53.464Z,39.58
2023-01-13T03:00:58.843Z,37.67
2023-01-13T03:06:14.319Z,36.17
2023-01-13T03:11:20.799Z,34.08
2023-01-13T03:16:38.413Z,40.92
2023-01-13T03:21:49.674Z,31.58
2023-01-13T03:27:01.334Z,21.25
2023-01-13T03:32:11.727Z,21.95
2023-01-13T03:37:18.061Z,11.73
2023-01-13T03:42:24.820Z,11.55
2023-01-13T03:47:34.700Z,6.72
2023-01-13T03:52:43.117Z,10.50
2023-01-13T03:57:52.031Z,9.80
2023-01-13T04:03:02.520Z,11.93
2023-01-13T04:08:17.195Z,8.98
2023-01-13T04:13:24.208Z,12.77
2023-01-13T04:18:31.449Z,7.95
2023-01-13T04:23:35.436Z,5.47
2023-01-13T04:28:40.820Z,11.77
2023-01-13T04:33:45.912Z,11.50
2023-01-13T04:38:51.453Z,17.02
2023-01-13T04:43:55.194Z,16.15
2023-01-13T04:49:00.358Z,16.55
2023-01-13T04:54:04.229Z,18.90
2023-01-13T04:59:08.757Z,13.38
2023-01-13T05:04:15.584Z,14.85
2023-01-13T05:09:19.420Z,18.80
2023-01-13T05:14:40.721Z,12.15
2023-01-13T05:19:45.952Z,15.27
2023-01-13T05:25:07.210Z,23.20
2023-01-13T05:30:12.107Z,22.62
2023-01-13T05:35:17.649Z,20.37
2023-01-13T05:40:39.052Z,17.55
2023-01-13T05:45:42.980Z,19.85
2023-01-13T05:50:49.257Z,17.73
2023-01-13T05:55:53.558Z,25.88
2023-01-13T06:01:01.228Z,23.90
2023-01-13T06:06:08.916Z,24.60
2023-01-13T06:11:12.895Z,19.05
2023-01-13T08:20:01.602Z,22.75
2023-01-13T08:25:06.406Z,22.77
2023-01-13T08:30:11.422Z,31.20
2023-01-13T08:35:17.463Z,45.33
2023-01-13T08:40:22.347Z,22.85
2023-01-13T08:45:26.187Z,31.75
2023-01-13T08:50:31.387Z,35.58
2023-01-13T08:55:35.197Z,25.62
2023-01-13T09:00:38.975Z,33.67
2023-01-13T09:05:44.107Z,35.55
2023-01-13T09:10:47.929Z,25.42
2023-01-13T09:15:52.310Z,31.40
2023-01-13T09:20:59.801Z,31.17
2023-01-13T09:26:03.567Z,24.57
2023-01-13T09:31:07.459Z,34.63
2023-01-13T09:36:12.781Z,35.83
2023-01-13T09:41:34.957Z,26.98
2023-01-13T09:46:48.057Z,29.15
2023-01-13T09:51:59.308Z,32.53
2023-01-13T09:57:03.187Z,32.90
2023-01-13T10:02:32.330Z,35.13
2023-01-13T10:07:41.073Z,36.90
2023-01-13T10:13:05.882Z,33.88
2023-01-13T10:18:19.491Z,40.10
2023-01-13T10:23:50.519Z,36.35
2023-01-13T10:28:55.161Z,26.70
2023-01-13T10:34:00.613Z,33.85
2023-01-13T10:39:11.109Z,29.27
2023-01-13T10:44:17.615Z,21.58
2023-01-13T10:49:29.368Z,32.28
2023-01-13T10:54:35.992Z,32.00
2023-01-13T10:59:39.821Z,30.50
2023-01-13T11:04:46.225Z,33.42
2023-01-13T11:10:15.513Z,36.58
2023-01-13T11:15:23.181Z,34.88
2023-01-13T11:20:32.514Z,27.73
2023-01-13T11:25:43.065Z,35.38
2023-01-13T11:30:56.538Z,35.30
2023-01-13T11:36:07.582Z,28.62
2023-01-13T11:41:21.735Z,35.00
2023-01-13T11:46:28.283Z,26.70
2023-01-13T11:51:39.451Z,22.52
2023-01-13T11:57:09.309Z,22.60
2023-01-13T12:02:26.365Z,20.08
2023-01-13T12:07:40.315Z,27.87
2023-01-13T12:12:55.055Z,29.60
2023-01-13T12:18:15.184Z,29.73
2023-01-13T12:23:26.043Z,28.23
2023-01-13T12:28:44.049Z,33.40
2023-01-13T12:34:08.703Z,25.85
2023-01-13T12:39:25.044Z,30.45
2023-01-13T12:44:30.353Z,37.50
2023-01-13T12:49:36.305Z,23.92
2023-01-13T12:55:03.939Z,21.90
2023-01-13T13:00:17.160Z,27.60
2023-01-13T13:06:00.429Z,24.65
2023-01-13T13:11:40.257Z,28.75
2023-01-13T13:16:54.757Z,33.63
2023-01-13T13:22:37.546Z,23.73
2023-01-13T13:27:45.174Z,24.87
2023-01-13T13:33:03.783Z,25.08
2023-01-13T13:38:43.488Z,15.23
2023-01-13T13:44:04.741Z,22.40
2023-01-13T13:49:09.966Z,21.15
2023-01-13T13:54:17.608Z,20.05
2023-01-13T13:59:25.150Z,30.77
2023-01-13T14:04:32.286Z,38.67
2023-01-13T14:09:47.015Z,30.20
2023-01-13T14:14:51.751Z,17.52
2023-01-13T14:20:01.634Z,27.08
2023-01-13T14:25:27.931Z,22.48
2023-01-13T14:30:33.754Z,31.15
2023-01-13T14:35:38.873Z,17.60
2023-01-13T14:40:46.909Z,33.28
2023-01-13T14:45:59.311Z,24.23
2023-01-13T14:51:09.490Z,21.90
2023-01-13T14:56:51.377Z,26.70
2023-01-13T15:01:55.589Z,34.17
2023-01-13T15:07:02.303Z,32.05
2023-01-13T15:12:18.179Z,36.90
2023-01-13T15:17:21.915Z,34.38
2023-01-13T15:22:28.206Z,34.08
2023-01-13T15:27:32.445Z,28.42
2023-01-13T15:32:36.235Z,22.20
2023-01-13T15:37:41.846Z,25.92
2023-01-13T15:43:03.688Z,31.42
2023-01-13T15:48:07.493Z,35.00
2023-01-13T15:53:14.965Z,19.15
2023-01-13T15:58:21.588Z,30.33
2023-01-13T16:03:25.356Z,25.95
2023-01-13T16:08:34.199Z,25.62
2023-01-13T16:13:40.123Z,18.87
2023-01-13T16:18:43.836Z,31.33
2023-01-13T16:23:50.803Z,20.17
2023-01-13T16:28:56.463Z,25.52
2023-01-13T16:34:01.347Z,28.52
2023-01-13T16:39:20.285Z,22.73
2023-01-13T16:44:24.313Z,19.48
2023-01-13T16:49:28.143Z,27.60
2023-01-13T16:54:33.311Z,20.83
2023-01-13T16:59:37.092Z,14.77
2023-01-13T17:04:40.805Z,22.65
2023-01-13T17:09:45.912Z,18.30
2023-01-13T17:14:49.643Z,23.40
2023-01-13T17:19:54.528Z,25.15
2023-01-13T17:24:59.637Z,20.77
2023-01-13T17:30:03.446Z,20.20
2023-01-13T17:35:08.087Z,21.55
2023-01-13T17:40:14.232Z,31.85
2023-01-13T17:45:18.065Z,23.00
2023-01-13T17:50:21.826Z,21.37
2023-01-13T17:55:26.942Z,21.35
2023-01-13T18:00:30.658Z,22.83
2023-01-13T18:05:35.061Z,24.50
2023-01-13T18:10:40.135Z,38.15
2023-01-13T18:15:43.906Z,28.25
2023-01-13T18:21:05.303Z,22.37
2023-01-13T18:26:35.637Z,18.95
2023-01-13T18:31:39.364Z,25.12
2023-01-13T18:36:43.122Z,21.55
2023-01-13T18:42:05.871Z,35.97
2023-01-13T18:47:09.991Z,21.25
2023-01-13T18:52:13.933Z,25.70
2023-01-13T18:57:21.356Z,26.98
2023-01-13T19:02:26.402Z,26.70
2023-01-13T19:07:31.787Z,27.70
2023-01-13T19:12:36.907Z,18.77
2023-01-13T19:17:40.695Z,29.30
2023-01-13T19:22:46.178Z,21.25
2023-01-13T19:27:51.299Z,25.80
2023-01-13T19:32:55.060Z,23.12
2023-01-13T19:37:58.789Z,25.98
2023-01-13T19:43:21.498Z,28.30
2023-01-13T19:48:26.163Z,23.00
2023-01-13T19:53:30.919Z,25.15
2023-01-13T19:58:36.041Z,33.90
2023-01-13T20:03:39.825Z,23.17
2023-01-13T20:08:46.067Z,28.92
2023-01-13T20:13:52.141Z,26.58
2023-01-13T20:18:56.323Z,27.67
2023-01-13T20:24:00.107Z,21.65
2023-01-13T20:29:05.182Z,28.50
2023-01-13T20:34:09.603Z,21.45
2023-01-13T20:39:16.200Z,21.15
2023-01-13T20:44:21.306Z,23.62
2023-01-13T20:49:26.458Z,23.12
2023-01-13T20:54:30.297Z,25.73
2023-01-13T20:59:35.410Z,23.35
2023-01-13T21:04:39.136Z,32.83
2023-01-13T21:09:42.929Z,24.08
2023-01-13T21:15:05.596Z,25.50
2023-01-13T21:20:12.018Z,25.17
2023-01-13T21:25:16.598Z,23.23
2023-01-13T21:30:22.728Z,20.30
2023-01-13T21:35:26.495Z,27.73
2023-01-13T21:40:30.221Z,22.60
2023-01-13T21:45:52.945Z,30.02
2023-01-13T21:51:00.992Z,23.90
2023-01-13T21:56:05.122Z,30.00
2023-01-13T22:01:11.972Z,24.23
2023-01-13T22:06:15.964Z,24.02
2023-01-13T22:11:19.757Z,22.87
2023-01-13T22:16:25.060Z,28.33
2023-01-13T22:21:28.879Z,22.92
2023-01-13T22:26:32.708Z,23.92
2023-01-13T22:31:39.214Z,26.65
2023-01-13T22:36:43.006Z,37.25
2023-01-13T22:41:46.706Z,35.45
2023-01-13T22:46:51.911Z,31.35
2023-01-13T22:51:55.653Z,19.87
2023-01-13T22:56:59.530Z,30.30
2023-01-13T23:02:04.649Z,28.05
2023-01-13T23:07:08.341Z,35.83
2023-01-13T23:12:12.111Z,22.10
2023-01-13T23:17:17.209Z,21.75
2023-01-13T23:22:20.992Z,21.42
2023-01-13T23:27:24.767Z,38.88
2023-01-13T23:32:29.932Z,27.55
2023-01-13T23:37:34.270Z,30.60
2023-01-13T23:42:37.988Z,39.30
2023-01-13T23:47:43.339Z,27.45
2023-01-13T23:52:47.120Z,24.20
2023-01-13T23:57:51.065Z,23.95
